createdAt,value
2023-04-10T00:00:56.988Z,5.60
2023-04-10T00:03:25.094Z,5.60
2023-04-10T00:05:54.671Z,5.60
2023-04-10T00:08:24.500Z,5.60
2023-04-10T00:10:53.129Z,5.50
2023-04-10T00:13:20.865Z,5.50
2023-04-10T00:15:49.508Z,5.50
2023-04-10T00:18:17.339Z,5.50
2023-04-10T00:20:45.345Z,5.40
2023-04-10T00:23:13.133Z,5.40
2023-04-10T00:25:42.187Z,5.40
2023-04-10T00:28:09.953Z,5.30
2023-04-10T00:30:37.690Z,5.30
2023-04-10T00:33:05.556Z,5.30
2023-04-10T00:35:33.412Z,5.30
2023-04-10T00:38:01.206Z,5.20
2023-04-10T00:40:30.249Z,5.20
2023-04-10T00:42:59.346Z,5.20
2023-04-10T00:45:27.425Z,5.20
2023-04-10T00:47:55.632Z,5.20
2023-04-10T00:50:23.969Z,5.20
2023-04-10T00:52:52.597Z,5.20
2023-04-10T00:55:20.571Z,5.20
2023-04-10T00:57:49.063Z,5.20
2023-04-10T01:00:19.357Z,5.10
2023-04-10T01:02:47.277Z,5.10
2023-04-10T01:05:15.513Z,5.10
2023-04-10T01:08:00.131Z,5.10
2023-04-10T01:10:32.140Z,5.10
2023-04-10T01:13:09.032Z,5.10
2023-04-10T01:15:47.862Z,5.10
2023-04-10T01:18:23.087Z,5.10
2023-04-10T01:20:51.109Z,5.00
2023-04-10T01:24:08.361Z,5.00
2023-04-10T01:26:53.542Z,5.00
2023-04-10T01:29:27.146Z,5.00
2023-04-10T01:31:59.140Z,5.00
2023-04-10T01:34:33.267Z,4.90
2023-04-10T01:37:04.768Z,4.90
2023-04-10T01:39:37.069Z,4.90
2023-04-10T01:42:07.206Z,4.90
2023-04-10T01:44:39.114Z,4.90
2023-04-10T01:47:08.230Z,4.90
2023-04-10T01:49:42.384Z,4.80
2023-04-10T01:52:11.598Z,4.80
2023-04-10T01:54:40.294Z,4.80
2023-04-10T01:57:08.323Z,4.80
2023-04-10T01:59:39.920Z,4.80
2023-04-10T02:02:07.990Z,4.80
2023-04-10T02:04:35.945Z,4.80
2023-04-10T02:07:05.545Z,4.80
2023-04-10T02:09:44.875Z,4.80
2023-04-10T02:12:17.846Z,4.90
2023-04-10T02:14:48.387Z,4.90
2023-04-10T02:17:19.409Z,5.00
2023-04-10T02:19:48.414Z,5.00
2023-04-10T02:22:16.980Z,5.00
2023-04-10T02:24:44.995Z,5.10
2023-04-10T02:27:12.706Z,5.10
2023-04-10T02:29:40.414Z,5.10
2023-04-10T02:32:09.568Z,5.10
2023-04-10T02:34:37.263Z,5.20
2023-04-10T02:37:04.945Z,5.20
2023-04-10T02:39:32.669Z,5.20
2023-04-10T02:42:01.114Z,5.20
2023-04-10T02:44:28.872Z,5.20
2023-04-10T02:46:56.624Z,5.20
2023-04-10T02:49:25.700Z,5.20
2023-04-10T02:51:53.394Z,5.30
2023-04-10T02:54:22.514Z,5.30
2023-04-10T02:56:50.284Z,5.30
2023-04-10T02:59:18.010Z,5.30
2023-04-10T03:01:47.500Z,5.30
2023-04-10T03:04:15.564Z,5.40
2023-04-10T03:06:44.714Z,5.40
2023-04-10T03:09:12.423Z,5.40
2023-04-10T03:11:40.311Z,5.40
2023-04-10T03:14:09.576Z,5.40
2023-04-10T03:16:37.418Z,5.40
2023-04-10T03:19:05.308Z,5.40
2023-04-10T03:21:33.000Z,5.40
2023-04-10T03:24:02.643Z,5.40
2023-04-10T03:26:30.363Z,5.40
2023-04-10T03:28:58.170Z,5.40
2023-04-10T03:31:26.060Z,5.40
2023-04-10T03:33:53.998Z,5.40
2023-04-10T03:36:22.046Z,5.40
2023-04-10T03:38:49.763Z,5.40
2023-04-10T03:41:18.800Z,5.40
2023-04-10T03:43:46.642Z,5.40
2023-04-10T03:46:14.361Z,5.40
2023-04-10T03:48:42.290Z,5.40
2023-04-10T03:51:10.010Z,5.40
2023-04-10T03:53:37.720Z,5.40
2023-04-10T03:56:06.292Z,5.40
2023-04-10T03:58:35.412Z,5.40
2023-04-10T04:01:03.107Z,5.40
2023-04-10T04:03:31.149Z,5.40
2023-04-10T04:05:58.948Z,5.40
2023-04-10T04:08:26.739Z,5.40
2023-04-10T04:10:54.473Z,5.40
2023-04-10T04:13:22.176Z,5.40
2023-04-10T04:15:51.242Z,5.40
2023-04-10T04:18:18.943Z,5.40
2023-04-10T04:20:46.655Z,5.40
2023-04-10T04:23:14.366Z,5.40
2023-04-10T04:25:42.042Z,5.40
2023-04-10T04:28:11.796Z,5.50
2023-04-10T04:30:39.491Z,5.50
2023-04-10T04:33:08.582Z,5.40
2023-04-10T04:35:36.320Z,5.40
2023-04-10T04:38:04.027Z,5.40
2023-04-10T04:40:32.404Z,5.40
2023-04-10T04:43:00.163Z,5.40
2023-04-10T04:45:29.469Z,5.40
2023-04-10T04:47:57.222Z,5.40
2023-04-10T04:50:26.351Z,5.40
2023-04-10T04:52:54.059Z,5.40
2023-04-10T04:55:21.738Z,5.40
2023-04-10T04:57:49.440Z,5.40
2023-04-10T05:00:17.314Z,5.40
2023-04-10T05:02:45.423Z,5.50
2023-04-10T05:05:13.173Z,5.50
2023-04-10T05:07:42.210Z,5.50
2023-04-10T05:10:10.570Z,5.60
2023-04-10T05:12:38.322Z,5.60
2023-04-10T05:15:07.332Z,5.60
2023-04-10T05:17:35.402Z,5.70
2023-04-10T05:20:03.267Z,5.70
2023-04-10T05:22:30.970Z,5.70
2023-04-10T05:25:00.611Z,5.80
2023-04-10T05:27:28.348Z,5.80
2023-04-10T05:29:56.071Z,5.80
2023-04-10T05:32:23.840Z,5.90
2023-04-10T05:34:51.598Z,5.90
2023-04-10T05:37:19.303Z,6.00
2023-04-10T05:39:47.044Z,6.00
2023-04-10T05:42:16.139Z,6.00
2023-04-10T05:44:45.164Z,6.10
2023-04-10T05:47:12.886Z,6.10
2023-04-10T05:49:40.589Z,6.10
2023-04-10T05:52:08.409Z,6.20
2023-04-10T05:54:36.552Z,6.20
2023-04-10T05:57:04.365Z,6.30
2023-04-10T05:59:33.425Z,6.30
2023-04-10T06:02:01.167Z,6.40
2023-04-10T06:04:29.110Z,6.40
2023-04-10T06:06:58.093Z,6.50
2023-04-10T06:09:26.180Z,6.60
2023-04-10T06:11:54.627Z,6.70
2023-04-10T06:14:22.350Z,6.70
2023-04-10T06:16:51.400Z,6.80
2023-04-10T06:19:19.214Z,6.80
2023-04-10T06:21:46.929Z,6.90
2023-04-10T06:24:15.669Z,7.00
2023-04-10T06:26:43.469Z,7.00
2023-04-10T06:29:11.365Z,7.10
2023-04-10T06:31:39.210Z,7.10
2023-04-10T06:34:08.266Z,7.20
2023-04-10T06:36:36.005Z,7.30
2023-04-10T06:39:03.736Z,7.40
2023-04-10T06:41:31.498Z,7.40
2023-04-10T06:44:01.047Z,7.50
2023-04-10T06:46:30.555Z,7.60
2023-04-10T06:48:58.351Z,7.60
2023-04-10T06:51:27.776Z,7.60
2023-04-10T06:53:55.539Z,7.70
2023-04-10T06:56:23.274Z,7.80
2023-04-10T06:58:50.968Z,7.90
2023-04-10T07:01:18.760Z,7.90
2023-04-10T07:03:46.524Z,8.00
2023-04-10T07:06:14.366Z,8.10
2023-04-10T07:08:43.504Z,8.20
2023-04-10T07:11:11.437Z,8.30
2023-04-10T07:13:40.010Z,8.40
2023-04-10T07:16:09.603Z,8.40
2023-04-10T07:18:38.454Z,8.60
2023-04-10T07:21:11.993Z,8.70
2023-04-10T07:23:39.728Z,8.70
2023-04-10T07:26:09.044Z,8.80
2023-04-10T07:28:38.188Z,8.90
2023-04-10T07:31:07.847Z,9.00
2023-04-10T07:33:36.159Z,9.10
2023-04-10T07:36:05.757Z,9.20
2023-04-10T07:38:33.647Z,9.20
2023-04-10T07:41:01.466Z,9.40
2023-04-10T07:43:30.923Z,9.50
2023-04-10T07:45:58.915Z,9.60
2023-04-10T07:48:26.738Z,9.70
2023-04-10T07:50:54.459Z,9.80
2023-04-10T07:53:22.165Z,9.90
2023-04-10T07:55:51.339Z,10.00
2023-04-10T07:58:19.078Z,10.10
2023-04-10T08:00:48.167Z,10.10
2023-04-10T08:03:17.073Z,10.20
2023-04-10T08:05:45.246Z,10.30
2023-04-10T08:08:13.194Z,10.40
2023-04-10T08:10:40.904Z,10.50
2023-04-10T08:13:08.759Z,10.50
2023-04-10T08:15:36.509Z,10.50
2023-04-10T08:18:05.584Z,10.60
2023-04-10T08:20:36.802Z,10.60
2023-04-10T08:23:17.348Z,10.70
2023-04-10T08:25:48.355Z,10.70
2023-04-10T08:28:16.051Z,10.80
2023-04-10T08:30:43.837Z,10.90
2023-04-10T08:33:12.958Z,10.90
2023-04-10T08:35:40.656Z,11.00
2023-04-10T08:38:14.070Z,11.20
2023-04-10T08:40:44.278Z,11.30
2023-04-10T08:43:12.037Z,11.40
2023-04-10T08:45:41.593Z,11.60
2023-04-10T08:48:11.431Z,11.70
2023-04-10T08:50:42.957Z,11.90
2023-04-10T08:53:13.136Z,12.00
2023-04-10T08:55:41.670Z,12.20
2023-04-10T08:58:11.230Z,12.40
2023-04-10T09:00:39.534Z,12.50
2023-04-10T09:03:11.649Z,12.70
2023-04-10T09:05:40.994Z,12.80
2023-04-10T09:08:09.579Z,12.80
2023-04-10T09:10:37.451Z,12.90
2023-04-10T09:13:05.284Z,12.90
2023-04-10T09:15:59.565Z,13.00
2023-04-10T09:18:42.343Z,13.00
2023-04-10T09:21:12.745Z,13.10
2023-04-10T09:23:40.501Z,13.10
2023-04-10T09:26:24.361Z,13.10
2023-04-10T09:29:00.722Z,13.20
2023-04-10T09:31:33.212Z,13.20
2023-04-10T09:34:09.425Z,13.30
2023-04-10T09:36:38.680Z,13.40
2023-04-10T09:39:06.768Z,13.50
2023-04-10T09:41:34.523Z,13.60
2023-04-10T09:44:10.249Z,13.70
2023-04-10T09:46:38.090Z,13.80
2023-04-10T09:49:07.301Z,13.80
2023-04-10T09:51:36.224Z,13.80
2023-04-10T09:54:05.622Z,13.90
2023-04-10T09:56:37.980Z,13.90
2023-04-10T09:59:07.976Z,14.00
2023-04-10T10:01:38.402Z,14.20
2023-04-10T10:04:06.411Z,14.30
2023-04-10T10:06:35.039Z,14.30
2023-04-10T10:09:06.010Z,14.40
2023-04-10T10:11:35.302Z,14.40
2023-04-10T10:14:05.567Z,14.50
2023-04-10T10:16:38.096Z,14.50
2023-04-10T10:19:11.580Z,14.50
2023-04-10T10:21:40.044Z,14.50
2023-04-10T10:24:10.612Z,14.60
2023-04-10T10:26:41.244Z,14.60
2023-04-10T10:29:10.975Z,14.70
2023-04-10T10:31:39.338Z,14.80
2023-04-10T10:34:09.175Z,14.90
2023-04-10T10:36:37.823Z,14.90
2023-04-10T10:39:29.790Z,15.00
2023-04-10T10:42:03.202Z,15.10
2023-04-10T10:44:39.624Z,15.20
2023-04-10T10:47:17.136Z,15.20
2023-04-10T10:49:58.890Z,15.20
2023-04-10T10:52:47.113Z,15.30
2023-04-10T10:55:37.950Z,15.40
2023-04-10T10:58:07.055Z,15.40
2023-04-10T11:01:07.849Z,15.50
2023-04-10T11:03:37.278Z,15.60
2023-04-10T11:06:07.866Z,15.70
2023-04-10T11:08:42.484Z,15.80
2023-04-10T11:11:15.616Z,15.80
2023-04-10T11:14:04.503Z,15.90
2023-04-10T11:16:46.998Z,15.90
2023-04-10T11:19:18.468Z,16.00
2023-04-10T11:22:06.031Z,16.00
2023-04-10T11:24:56.225Z,16.10
2023-04-10T11:27:42.556Z,16.10
2023-04-10T11:30:33.128Z,16.20
2023-04-10T11:33:02.158Z,16.20
2023-04-10T11:35:31.314Z,16.20
2023-04-10T11:38:18.758Z,16.20
2023-04-10T11:40:57.149Z,16.30
2023-04-10T11:43:26.545Z,16.40
2023-04-10T11:46:04.443Z,16.40
2023-04-10T11:48:32.615Z,16.50
2023-04-10T11:51:01.957Z,16.60
2023-04-10T11:53:30.027Z,16.70
2023-04-10T11:55:58.354Z,16.80
2023-04-10T11:58:28.669Z,16.80
2023-04-10T12:01:01.105Z,16.90
2023-04-10T12:03:36.694Z,16.90
2023-04-10T12:06:05.437Z,16.90
2023-04-10T12:08:33.742Z,16.90
2023-04-10T12:11:01.578Z,16.90
2023-04-10T12:13:31.690Z,16.80
2023-04-10T12:16:01.081Z,16.80
2023-04-10T12:18:30.086Z,16.70
2023-04-10T12:21:00.284Z,16.70
2023-04-10T12:23:29.780Z,16.60
2023-04-10T12:26:09.691Z,16.60
2023-04-10T12:28:39.886Z,16.60
2023-04-10T12:31:08.355Z,16.70
2023-04-10T12:33:36.261Z,16.70
2023-04-10T12:36:04.264Z,16.70
2023-04-10T12:38:39.486Z,16.70
2023-04-10T12:41:07.990Z,16.70
2023-04-10T12:43:38.944Z,16.70
2023-04-10T12:46:08.380Z,16.70
2023-04-10T12:48:36.518Z,16.70
2023-04-10T12:51:04.922Z,16.70
2023-04-10T12:53:32.861Z,16.70
2023-04-10T12:56:03.527Z,16.70
2023-04-10T12:58:32.120Z,16.70
2023-04-10T13:01:06.284Z,16.70
2023-04-10T13:03:36.316Z,16.80
2023-04-10T13:06:06.051Z,16.90
2023-04-10T13:08:33.980Z,16.90
2023-04-10T13:11:03.116Z,17.00
2023-04-10T13:13:32.603Z,17.10
2023-04-10T13:16:01.990Z,17.20
2023-04-10T13:18:29.804Z,17.20
2023-04-10T13:20:57.511Z,17.20
2023-04-10T13:23:25.198Z,17.30
2023-04-10T13:25:53.497Z,17.30
2023-04-10T13:28:21.474Z,17.30
2023-04-10T13:30:49.375Z,17.40
2023-04-10T13:33:18.534Z,17.40
2023-04-10T13:35:46.330Z,17.40
2023-04-10T13:38:14.056Z,17.40
2023-04-10T13:40:41.783Z,17.40
2023-04-10T13:43:09.463Z,17.30
2023-04-10T13:45:37.159Z,17.30
2023-04-10T13:48:07.106Z,17.30
2023-04-10T13:50:36.243Z,17.20
2023-04-10T13:53:04.000Z,17.20
2023-04-10T13:55:31.762Z,17.20
2023-04-10T13:57:59.757Z,17.10
2023-04-10T14:00:27.884Z,17.10
2023-04-10T14:02:56.039Z,17.10
2023-04-10T14:05:24.146Z,17.10
2023-04-10T14:07:56.969Z,17.10
2023-04-10T14:10:24.852Z,17.10
2023-04-10T14:12:52.969Z,17.10
2023-04-10T14:15:20.854Z,17.10
2023-04-10T14:17:48.884Z,17.00
2023-04-10T14:20:16.561Z,17.00
2023-04-10T14:22:44.246Z,17.00
2023-04-10T14:25:15.660Z,16.90
2023-04-10T14:27:43.904Z,16.90
2023-04-10T14:30:12.015Z,16.90
2023-04-10T14:32:40.467Z,16.90
2023-04-10T14:35:08.972Z,16.80
2023-04-10T14:37:36.776Z,16.80
2023-04-10T14:40:05.623Z,16.90
2023-04-10T14:42:34.654Z,16.90
2023-04-10T14:45:02.328Z,16.90
2023-04-10T14:47:30.109Z,16.90
2023-04-10T14:49:57.923Z,16.90
2023-04-10T14:52:25.601Z,16.90
2023-04-10T14:54:53.332Z,16.90
2023-04-10T14:57:21.022Z,16.90
2023-04-10T14:59:50.175Z,16.90
2023-04-10T15:02:17.899Z,17.00
2023-04-10T15:04:45.601Z,16.90
2023-04-10T15:07:13.923Z,17.00
2023-04-10T15:09:43.007Z,17.00
2023-04-10T15:12:10.761Z,17.10
2023-04-10T15:14:38.469Z,17.10
2023-04-10T15:17:07.553Z,17.10
2023-04-10T15:19:35.394Z,17.10
2023-04-10T15:22:03.057Z,17.10
2023-04-10T15:24:34.569Z,17.10
2023-04-10T15:27:07.950Z,17.10
2023-04-10T15:29:39.384Z,17.10
2023-04-10T15:32:08.517Z,17.20
2023-04-10T15:34:36.325Z,17.20
2023-04-10T15:37:04.030Z,17.30
2023-04-10T15:39:31.768Z,17.40
2023-04-10T15:42:00.148Z,17.50
2023-04-10T15:44:27.832Z,17.50
2023-04-10T15:46:55.564Z,17.50
2023-04-10T15:49:36.187Z,17.60
2023-04-10T15:52:06.170Z,17.60
2023-04-10T15:54:34.604Z,17.60
2023-04-10T15:57:02.540Z,17.60
2023-04-10T15:59:30.301Z,17.50
2023-04-10T16:01:58.033Z,17.50
2023-04-10T16:04:27.217Z,17.40
2023-04-10T16:06:56.166Z,17.30
2023-04-10T16:09:26.483Z,17.20
2023-04-10T16:11:54.756Z,17.10
2023-04-10T16:14:22.677Z,17.00
2023-04-10T16:16:50.893Z,16.90
2023-04-10T16:19:18.596Z,16.90
2023-04-10T16:21:47.637Z,16.80
2023-04-10T16:24:15.391Z,16.70
2023-04-10T16:26:43.213Z,16.60
2023-04-10T16:29:10.932Z,16.60
2023-04-10T16:31:38.726Z,16.50
2023-04-10T16:34:06.471Z,16.50
2023-04-10T16:36:34.162Z,16.50
2023-04-10T16:39:03.174Z,16.40
2023-04-10T16:41:31.138Z,16.30
2023-04-10T16:43:58.793Z,16.30
2023-04-10T16:46:26.999Z,16.20
2023-04-10T16:48:55.118Z,16.20
2023-04-10T16:51:24.283Z,16.10
2023-04-10T16:53:52.024Z,16.10
2023-04-10T16:56:21.036Z,16.10
2023-04-10T16:58:48.755Z,16.00
2023-04-10T17:01:18.149Z,16.00
2023-04-10T17:03:47.350Z,15.90
2023-04-10T17:06:15.835Z,15.80
2023-04-10T17:08:43.823Z,15.80
2023-04-10T17:11:12.382Z,15.70
2023-04-10T17:13:41.442Z,15.70
2023-04-10T17:16:09.946Z,15.60
2023-04-10T17:18:37.680Z,15.50
2023-04-10T17:21:05.703Z,15.50
2023-04-10T17:23:33.405Z,15.40
2023-04-10T17:26:04.585Z,15.40
2023-04-10T17:28:33.059Z,15.30
2023-04-10T17:31:02.839Z,15.20
2023-04-10T17:33:30.626Z,15.10
2023-04-10T17:35:58.449Z,15.00
2023-04-10T17:38:26.234Z,14.90
2023-04-10T17:40:53.917Z,14.80
2023-04-10T17:43:22.207Z,14.80
2023-04-10T17:45:49.926Z,14.60
2023-04-10T17:48:19.268Z,14.60
2023-04-10T17:50:48.058Z,14.50
2023-04-10T17:53:16.159Z,14.40
2023-04-10T17:55:43.865Z,14.30
2023-04-10T17:58:11.611Z,14.30
2023-04-10T18:00:41.780Z,14.20
2023-04-10T18:03:09.621Z,14.10
2023-04-10T18:05:39.657Z,14.10
2023-04-10T18:08:08.451Z,14.10
2023-04-10T18:10:36.300Z,14.00
2023-04-10T18:13:04.032Z,13.90
2023-04-10T18:15:31.836Z,13.80
2023-04-10T18:17:59.630Z,13.80
2023-04-10T18:20:27.408Z,13.70
2023-04-10T18:22:56.538Z,13.60
2023-04-10T18:25:24.236Z,13.50
2023-04-10T18:28:12.586Z,13.50
2023-04-10T18:30:40.523Z,13.40
2023-04-10T18:33:11.002Z,13.30
2023-04-10T18:35:39.501Z,13.30
2023-04-10T18:38:08.734Z,13.20
2023-04-10T18:40:36.798Z,13.20
2023-04-10T18:43:04.717Z,13.20
2023-04-10T18:45:34.861Z,13.10
2023-04-10T18:48:02.613Z,13.10
2023-04-10T18:50:31.283Z,13.00
2023-04-10T18:52:58.980Z,13.00
2023-04-10T18:55:28.037Z,13.00
2023-04-10T18:57:55.809Z,13.00
2023-04-10T19:00:23.651Z,13.00
2023-04-10T19:02:51.617Z,12.90
2023-04-10T19:05:19.381Z,12.80
2023-04-10T19:08:00.703Z,12.90
2023-04-10T19:10:33.632Z,12.80
2023-04-10T19:13:01.354Z,12.80
2023-04-10T19:15:29.123Z,12.80
2023-04-10T19:17:56.979Z,12.70
2023-04-10T19:20:50.360Z,12.60
2023-04-10T19:23:12.752Z,12.60
2023-04-10T19:25:42.498Z,12.60
2023-04-10T19:28:10.378Z,12.50
2023-04-10T19:30:38.132Z,12.50
2023-04-10T19:33:05.955Z,12.40
2023-04-10T19:35:33.773Z,12.40
2023-04-10T19:38:01.585Z,12.40
2023-04-10T19:40:30.498Z,12.40
2023-04-10T19:43:01.644Z,12.30
2023-04-10T19:45:29.921Z,12.30
2023-04-10T19:47:57.816Z,12.20
2023-04-10T19:50:25.545Z,12.20
2023-04-10T19:52:53.285Z,12.10
2023-04-10T19:55:21.289Z,12.10
2023-04-10T19:57:49.224Z,12.00
2023-04-10T20:00:18.982Z,12.00
2023-04-10T20:02:46.867Z,11.90
2023-04-10T20:05:14.907Z,11.90
2023-04-10T20:07:42.719Z,11.80
2023-04-10T20:10:11.830Z,11.80
2023-04-10T20:12:39.580Z,11.80
2023-04-10T20:15:08.701Z,11.70
2023-04-10T20:17:38.782Z,11.70
2023-04-10T20:20:07.762Z,11.70
2023-04-10T20:22:35.569Z,11.60
2023-04-10T20:25:03.254Z,11.60
2023-04-10T20:27:30.943Z,11.60
2023-04-10T20:29:58.655Z,11.50
2023-04-10T20:32:26.428Z,11.50
2023-04-10T20:34:55.542Z,11.50
2023-04-10T20:37:23.331Z,11.50
2023-04-10T20:39:52.185Z,11.40
2023-04-10T20:42:19.964Z,11.40
2023-04-10T20:44:47.655Z,11.30
2023-04-10T20:47:15.781Z,11.30
2023-04-10T20:49:43.658Z,11.20
2023-04-10T20:52:12.714Z,11.10
2023-04-10T20:54:40.534Z,11.10
2023-04-10T20:57:08.259Z,11.00
2023-04-10T20:59:36.552Z,11.00
2023-04-10T21:02:04.496Z,11.00
2023-04-10T21:04:32.761Z,10.90
2023-04-10T21:07:00.454Z,10.80
2023-04-10T21:09:29.640Z,10.80
2023-04-10T21:11:57.944Z,10.70
2023-04-10T21:14:25.754Z,10.70
2023-04-10T21:16:53.483Z,10.60
2023-04-10T21:19:21.272Z,10.60
2023-04-10T21:21:49.032Z,10.60
2023-04-10T21:24:16.732Z,10.50
2023-04-10T21:26:45.885Z,10.50
2023-04-10T21:29:13.586Z,10.50
2023-04-10T21:31:41.341Z,10.40
2023-04-10T21:34:09.134Z,10.40
2023-04-10T21:36:36.930Z,10.40
2023-04-10T21:39:08.776Z,10.30
2023-04-10T21:41:36.734Z,10.30
2023-04-10T21:44:06.296Z,10.30
2023-04-10T21:46:34.545Z,10.20
2023-04-10T21:49:02.901Z,10.20
2023-04-10T21:51:30.965Z,10.20
2023-04-10T21:53:58.656Z,10.10
2023-04-10T21:56:26.359Z,10.10
2023-04-10T21:58:54.412Z,10.20
2023-04-10T22:01:23.650Z,10.10
2023-04-10T22:03:51.603Z,10.10
2023-04-10T22:06:19.337Z,10.10
2023-04-10T22:08:47.029Z,10.00
2023-04-10T22:11:14.778Z,10.00
2023-04-10T22:13:42.518Z,10.00
2023-04-10T22:16:10.421Z,10.00
2023-04-10T22:18:39.473Z,9.90
2023-04-10T22:21:07.598Z,9.90
2023-04-10T22:23:35.320Z,9.90
2023-04-10T22:26:03.073Z,9.90
2023-04-10T22:28:30.776Z,9.90
2023-04-10T22:30:58.527Z,9.90
2023-04-10T22:33:26.255Z,9.80
2023-04-10T22:35:55.302Z,9.80
2023-04-10T22:38:23.011Z,9.80
2023-04-10T22:40:50.721Z,9.80
2023-04-10T22:43:18.422Z,9.80
2023-04-10T22:45:46.174Z,9.70
2023-04-10T22:48:13.880Z,9.70
2023-04-10T22:50:41.615Z,9.70
2023-04-10T22:53:11.817Z,9.60
2023-04-10T22:55:39.982Z,9.60
2023-04-10T22:58:08.219Z,9.60
2023-04-10T23:00:36.040Z,9.60
2023-04-10T23:03:03.854Z,9.50
2023-04-10T23:05:32.847Z,9.50
2023-04-10T23:08:00.580Z,9.50
2023-04-10T23:10:29.633Z,9.50
2023-04-10T23:12:57.322Z,9.50
2023-04-10T23:15:25.078Z,9.50
2023-04-10T23:17:52.876Z,9.50
2023-04-10T23:20:20.788Z,9.40
2023-04-10T23:22:48.575Z,9.40
2023-04-10T23:25:16.479Z,9.40
2023-04-10T23:27:45.540Z,9.40
2023-04-10T23:30:13.475Z,9.30
2023-04-10T23:32:41.256Z,9.30
2023-04-10T23:35:09.669Z,9.30
2023-04-10T23:37:37.435Z,9.30
2023-04-10T23:40:05.778Z,9.30
2023-04-10T23:42:33.486Z,9.30
2023-04-10T23:45:02.571Z,9.20
2023-04-10T23:47:30.328Z,9.20
2023-04-10T23:49:58.494Z,9.20
2023-04-10T23:52:26.236Z,9.20
2023-04-10T23:54:56.360Z,9.20
2023-04-10T23:57:24.194Z,9.20
2023-04-10T23:59:52.127Z,9.20
